Main page
METAR-TAF:

METAR-TAF

Airports :

Monte Real Air Base

Monte Real, Portugal

latitude: 39-49-52N, longitude: 008-53-14W, elevation: 57 m

Current weather observation

The report was made 45 minutes ago, at 20:00 UTC
Wind 9 kt from the North
Temperature 17°C
Humidity 63%
Pressure 1016 hPa
Visibility 10 km or more
Few clouds at a height of 3500 ft

METAR: LPMR 252000Z 35009KT 9999 FEW035 17/10 Q1016

Time: 21:45 (20:45 UTC)

Forecast

The report was made 3 hours and 43 minutes ago, at 17:02 UTC
Forecast valid from 25 at 18 UTC to 26 at 18 UTC
Wind 10 kt from the North/Northwest
Visibility 10 km or more
Few clouds at a height of 3000 ft
Temporary
from 26 at 11 UTC to 26 at 18 UTC
Wind 15 kt from the North with gusts up to 25 kt

TAF: LPMR 251702Z 2518/2618 34010KT 9999 FEW030 TEMPO 2611/2618 35015G25KT

Weather observations and forecasts of more than 4000 airports (METAR and TAF reports).

The available stations are represented by yellow and red dots on the map.

Hover mouse over dot to see the name of the station.

Then click to see weather observations and forecasts.

To change the map : click on the green buttons with a black cross to zoom in, on the green button with a dash to zoom out, or on the green arrows for adjacent maps.


METAR-TAF: